sensor_id;sensor_type;location;lat;lon;timestamp;temperature;humidity
64652;HTU21D;51062;45.120;37.660;2023-08-06T00:00:46;24.24;53.31
64652;HTU21D;51062;45.120;37.660;2023-08-06T00:03:12;24.20;53.36
64652;HTU21D;51062;45.120;37.660;2023-08-06T00:05:41;24.19;53.42
64652;HTU21D;51062;45.120;37.660;2023-08-06T00:08:08;24.16;53.48
64652;HTU21D;51062;45.120;37.660;2023-08-06T00:10:34;24.13;53.55
64652;HTU21D;51062;45.120;37.660;2023-08-06T00:13:00;24.10;53.64
64652;HTU21D;51062;45.120;37.660;2023-08-06T00:15:26;24.06;53.73
64652;HTU21D;51062;45.120;37.660;2023-08-06T00:17:52;24.03;53.81
64652;HTU21D;51062;45.120;37.660;2023-08-06T00:20:19;24.00;53.84
64652;HTU21D;51062;45.120;37.660;2023-08-06T00:22:45;24.00;53.87
64652;HTU21D;51062;45.120;37.660;2023-08-06T00:25:11;23.99;53.91
64652;HTU21D;51062;45.120;37.660;2023-08-06T00:27:37;23.98;53.97
64652;HTU21D;51062;45.120;37.660;2023-08-06T00:30:04;23.98;54.02
64652;HTU21D;51062;45.120;37.660;2023-08-06T00:32:30;23.97;54.07
64652;HTU21D;51062;45.120;37.660;2023-08-06T00:34:57;23.95;54.13
64652;HTU21D;51062;45.120;37.660;2023-08-06T00:37:23;23.90;54.26
64652;HTU21D;51062;45.120;37.660;2023-08-06T00:39:49;23.85;54.36
64652;HTU21D;51062;45.120;37.660;2023-08-06T00:42:15;23.82;54.42
64652;HTU21D;51062;45.120;37.660;2023-08-06T00:44:46;23.80;54.49
64652;HTU21D;51062;45.120;37.660;2023-08-06T00:47:13;23.77;54.52
64652;HTU21D;51062;45.120;37.660;2023-08-06T00:49:39;23.75;54.60
64652;HTU21D;51062;45.120;37.660;2023-08-06T00:52:06;23.74;54.59
64652;HTU21D;51062;45.120;37.660;2023-08-06T00:54:36;23.73;54.61
64652;HTU21D;51062;45.120;37.660;2023-08-06T00:57:03;23.72;54.66
64652;HTU21D;51062;45.120;37.660;2023-08-06T00:59:31;23.70;54.70
64652;HTU21D;51062;45.120;37.660;2023-08-06T01:01:57;23.68;54.75
64652;HTU21D;51062;45.120;37.660;2023-08-06T01:04:24;23.67;54.75
64652;HTU21D;51062;45.120;37.660;2023-08-06T01:09:34;23.60;54.92
64652;HTU21D;51062;45.120;37.660;2023-08-06T01:12:13;23.54;54.92
64652;HTU21D;51062;45.120;37.660;2023-08-06T01:15:07;23.46;54.96
64652;HTU21D;51062;45.120;37.660;2023-08-06T01:17:30;23.36;55.06
64652;HTU21D;51062;45.120;37.660;2023-08-06T01:19:57;23.30;55.20
64652;HTU21D;51062;45.120;37.660;2023-08-06T01:22:23;23.25;55.29
64652;HTU21D;51062;45.120;37.660;2023-08-06T01:24:50;23.20;55.42
64652;HTU21D;51062;45.120;37.660;2023-08-06T01:27:49;23.12;55.52
64652;HTU21D;51062;45.120;37.660;2023-08-06T01:30:25;23.09;55.55
64652;HTU21D;51062;45.120;37.660;2023-08-06T01:32:58;23.07;55.68
64652;HTU21D;51062;45.120;37.660;2023-08-06T01:35:27;23.01;55.73
64652;HTU21D;51062;45.120;37.660;2023-08-06T01:37:54;23.02;55.72
64652;HTU21D;51062;45.120;37.660;2023-08-06T01:40:23;23.00;55.71
64652;HTU21D;51062;45.120;37.660;2023-08-06T01:42:49;23.00;55.76
64652;HTU21D;51062;45.120;37.660;2023-08-06T01:45:15;22.96;55.85
64652;HTU21D;51062;45.120;37.660;2023-08-06T01:47:41;22.95;55.90
64652;HTU21D;51062;45.120;37.660;2023-08-06T01:50:07;22.95;55.97
64652;HTU21D;51062;45.120;37.660;2023-08-06T01:52:33;22.95;56.03
64652;HTU21D;51062;45.120;37.660;2023-08-06T01:54:59;22.96;56.03
64652;HTU21D;51062;45.120;37.660;2023-08-06T01:57:25;22.96;56.03
64652;HTU21D;51062;45.120;37.660;2023-08-06T01:59:51;22.95;56.07
64652;HTU21D;51062;45.120;37.660;2023-08-06T02:02:17;22.95;56.11
64652;HTU21D;51062;45.120;37.660;2023-08-06T02:04:43;22.95;56.16
64652;HTU21D;51062;45.120;37.660;2023-08-06T02:07:12;22.94;56.20
64652;HTU21D;51062;45.120;37.660;2023-08-06T02:09:38;22.93;56.20
64652;HTU21D;51062;45.120;37.660;2023-08-06T02:12:04;22.92;56.19
64652;HTU21D;51062;45.120;37.660;2023-08-06T02:14:30;22.90;56.21
64652;HTU21D;51062;45.120;37.660;2023-08-06T02:16:56;22.88;56.23
64652;HTU21D;51062;45.120;37.660;2023-08-06T02:19:24;22.85;56.30
64652;HTU21D;51062;45.120;37.660;2023-08-06T02:21:51;22.84;56.36
64652;HTU21D;51062;45.120;37.660;2023-08-06T02:24:17;22.84;56.45
64652;HTU21D;51062;45.120;37.660;2023-08-06T02:26:43;22.84;56.49
64652;HTU21D;51062;45.120;37.660;2023-08-06T02:29:09;22.86;56.50
64652;HTU21D;51062;45.120;37.660;2023-08-06T02:31:35;22.88;56.48
64652;HTU21D;51062;45.120;37.660;2023-08-06T02:34:01;22.93;56.46
64652;HTU21D;51062;45.120;37.660;2023-08-06T02:36:27;23.01;56.45
64652;HTU21D;51062;45.120;37.660;2023-08-06T02:38:55;23.09;56.43
64652;HTU21D;51062;45.120;37.660;2023-08-06T02:41:22;23.14;56.42
64652;HTU21D;51062;45.120;37.660;2023-08-06T02:43:48;23.16;56.45
64652;HTU21D;51062;45.120;37.660;2023-08-06T02:46:14;23.17;56.49
64652;HTU21D;51062;45.120;37.660;2023-08-06T02:48:40;23.17;56.51
64652;HTU21D;51062;45.120;37.660;2023-08-06T02:51:06;23.18;56.56
64652;HTU21D;51062;45.120;37.660;2023-08-06T02:53:32;23.27;56.64
64652;HTU21D;51062;45.120;37.660;2023-08-06T02:56:03;23.50;56.68
64652;HTU21D;51062;45.120;37.660;2023-08-06T02:58:39;23.74;56.57
64652;HTU21D;51062;45.120;37.660;2023-08-06T03:01:17;24.06;56.40
64652;HTU21D;51062;45.120;37.660;2023-08-06T03:03:52;24.50;56.14
64652;HTU21D;51062;45.120;37.660;2023-08-06T03:06:25;24.99;55.86
64652;HTU21D;51062;45.120;37.660;2023-08-06T03:08:54;25.44;55.59
64652;HTU21D;51062;45.120;37.660;2023-08-06T03:11:20;25.89;55.31
64652;HTU21D;51062;45.120;37.660;2023-08-06T03:13:49;26.34;54.96
64652;HTU21D;51062;45.120;37.660;2023-08-06T03:16:16;26.71;54.62
64652;HTU21D;51062;45.120;37.660;2023-08-06T03:18:43;27.01;54.39
64652;HTU21D;51062;45.120;37.660;2023-08-06T03:21:10;27.30;54.17
64652;HTU21D;51062;45.120;37.660;2023-08-06T03:23:36;27.64;53.86
64652;HTU21D;51062;45.120;37.660;2023-08-06T03:26:03;27.93;53.49
64652;HTU21D;51062;45.120;37.660;2023-08-06T03:28:31;28.18;53.24
64652;HTU21D;51062;45.120;37.660;2023-08-06T03:31:02;28.42;53.01
64652;HTU21D;51062;45.120;37.660;2023-08-06T03:33:33;28.62;52.86
64652;HTU21D;51062;45.120;37.660;2023-08-06T03:36:01;28.85;52.71
64652;HTU21D;51062;45.120;37.660;2023-08-06T03:38:28;29.06;52.43
64652;HTU21D;51062;45.120;37.660;2023-08-06T03:40:54;29.05;52.39
64652;HTU21D;51062;45.120;37.660;2023-08-06T03:43:21;28.80;52.45
64652;HTU21D;51062;45.120;37.660;2023-08-06T03:45:47;28.48;52.37
64652;HTU21D;51062;45.120;37.660;2023-08-06T03:48:13;28.28;52.05
64652;HTU21D;51062;45.120;37.660;2023-08-06T03:50:39;28.48;51.27
64652;HTU21D;51062;45.120;37.660;2023-08-06T03:53:10;28.87;50.66
64652;HTU21D;51062;45.120;37.660;2023-08-06T03:55:36;29.32;50.35
64652;HTU21D;51062;45.120;37.660;2023-08-06T03:58:02;29.61;50.11
64652;HTU21D;51062;45.120;37.660;2023-08-06T04:00:28;29.87;50.08
64652;HTU21D;51062;45.120;37.660;2023-08-06T04:02:55;30.16;49.92
64652;HTU21D;51062;45.120;37.660;2023-08-06T04:05:21;30.46;49.76
64652;HTU21D;51062;45.120;37.660;2023-08-06T04:07:47;30.75;49.43
64652;HTU21D;51062;45.120;37.660;2023-08-06T04:10:13;31.02;49.18
64652;HTU21D;51062;45.120;37.660;2023-08-06T04:12:39;31.36;48.76
64652;HTU21D;51062;45.120;37.660;2023-08-06T04:15:06;31.72;48.35
64652;HTU21D;51062;45.120;37.660;2023-08-06T04:17:32;32.02;47.87
64652;HTU21D;51062;45.120;37.660;2023-08-06T04:19:59;32.19;47.57
64652;HTU21D;51062;45.120;37.660;2023-08-06T04:22:25;32.28;47.32
64652;HTU21D;51062;45.120;37.660;2023-08-06T04:24:51;32.40;46.96
64652;HTU21D;51062;45.120;37.660;2023-08-06T04:27:19;32.48;46.73
64652;HTU21D;51062;45.120;37.660;2023-08-06T04:29:47;32.45;46.62
64652;HTU21D;51062;45.120;37.660;2023-08-06T04:32:14;32.48;46.57
64652;HTU21D;51062;45.120;37.660;2023-08-06T04:35:00;32.64;46.41
64652;HTU21D;51062;45.120;37.660;2023-08-06T04:37:26;32.89;46.15
64652;HTU21D;51062;45.120;37.660;2023-08-06T04:39:53;33.03;45.61
64652;HTU21D;51062;45.120;37.660;2023-08-06T04:42:19;33.11;45.42
64652;HTU21D;51062;45.120;37.660;2023-08-06T04:44:46;33.22;45.19
64652;HTU21D;51062;45.120;37.660;2023-08-06T04:47:12;33.29;44.91
64652;HTU21D;51062;45.120;37.660;2023-08-06T04:49:38;33.33;44.80
64652;HTU21D;51062;45.120;37.660;2023-08-06T04:52:05;33.35;44.83
64652;HTU21D;51062;45.120;37.660;2023-08-06T04:54:31;33.49;44.79
64652;HTU21D;51062;45.120;37.660;2023-08-06T04:56:57;33.63;44.50
64652;HTU21D;51062;45.120;37.660;2023-08-06T04:59:23;33.71;44.50
64652;HTU21D;51062;45.120;37.660;2023-08-06T05:01:49;33.79;44.14
64652;HTU21D;51062;45.120;37.660;2023-08-06T05:04:15;33.90;44.05
64652;HTU21D;51062;45.120;37.660;2023-08-06T05:06:41;33.95;43.80
64652;HTU21D;51062;45.120;37.660;2023-08-06T05:09:07;33.97;43.74
64652;HTU21D;51062;45.120;37.660;2023-08-06T05:11:33;33.97;43.39
64652;HTU21D;51062;45.120;37.660;2023-08-06T05:13:59;33.85;43.08
64652;HTU21D;51062;45.120;37.660;2023-08-06T05:16:26;33.76;42.97
64652;HTU21D;51062;45.120;37.660;2023-08-06T05:18:52;33.77;42.82
64652;HTU21D;51062;45.120;37.660;2023-08-06T05:21:18;33.73;42.75
64652;HTU21D;51062;45.120;37.660;2023-08-06T05:23:44;33.78;42.51
64652;HTU21D;51062;45.120;37.660;2023-08-06T05:26:10;33.81;42.23
64652;HTU21D;51062;45.120;37.660;2023-08-06T05:28:36;33.72;41.99
64652;HTU21D;51062;45.120;37.660;2023-08-06T05:31:05;33.74;42.37
64652;HTU21D;51062;45.120;37.660;2023-08-06T05:33:31;34.00;42.06
64652;HTU21D;51062;45.120;37.660;2023-08-06T05:35:57;34.22;41.92
64652;HTU21D;51062;45.120;37.660;2023-08-06T05:38:23;34.31;41.52
64652;HTU21D;51062;45.120;37.660;2023-08-06T05:40:49;34.22;41.58
64652;HTU21D;51062;45.120;37.660;2023-08-06T05:43:15;34.32;41.37
64652;HTU21D;51062;45.120;37.660;2023-08-06T05:45:45;34.41;41.35
64652;HTU21D;51062;45.120;37.660;2023-08-06T05:48:12;34.59;41.08
64652;HTU21D;51062;45.120;37.660;2023-08-06T05:50:38;34.69;40.95
64652;HTU21D;51062;45.120;37.660;2023-08-06T05:53:04;34.79;40.88
64652;HTU21D;51062;45.120;37.660;2023-08-06T05:55:30;34.94;40.55
64652;HTU21D;51062;45.120;37.660;2023-08-06T05:57:58;34.95;40.49
64652;HTU21D;51062;45.120;37.660;2023-08-06T06:00:24;35.03;40.36
64652;HTU21D;51062;45.120;37.660;2023-08-06T06:02:50;35.21;40.34
64652;HTU21D;51062;45.120;37.660;2023-08-06T06:05:16;35.47;40.10
64652;HTU21D;51062;45.120;37.660;2023-08-06T06:07:42;35.55;39.76
64652;HTU21D;51062;45.120;37.660;2023-08-06T06:10:08;35.56;39.49
64652;HTU21D;51062;45.120;37.660;2023-08-06T06:12:35;35.51;39.36
64652;HTU21D;51062;45.120;37.660;2023-08-06T06:15:01;35.47;39.36
64652;HTU21D;51062;45.120;37.660;2023-08-06T06:17:29;35.50;39.45
64652;HTU21D;51062;45.120;37.660;2023-08-06T06:19:55;35.63;39.06
64652;HTU21D;51062;45.120;37.660;2023-08-06T06:22:21;35.73;38.78
64652;HTU21D;51062;45.120;37.660;2023-08-06T06:24:47;35.66;38.43
64652;HTU21D;51062;45.120;37.660;2023-08-06T06:27:13;35.54;38.70
64652;HTU21D;51062;45.120;37.660;2023-08-06T06:29:39;35.68;38.69
64652;HTU21D;51062;45.120;37.660;2023-08-06T06:32:05;35.92;38.61
64652;HTU21D;51062;45.120;37.660;2023-08-06T06:34:32;36.17;38.38
64652;HTU21D;51062;45.120;37.660;2023-08-06T06:36:58;36.46;37.94
64652;HTU21D;51062;45.120;37.660;2023-08-06T06:39:24;36.60;37.56
64652;HTU21D;51062;45.120;37.660;2023-08-06T06:41:50;36.61;37.42
64652;HTU21D;51062;45.120;37.660;2023-08-06T06:44:24;36.62;37.37
64652;HTU21D;51062;45.120;37.660;2023-08-06T06:46:50;36.69;37.43
64652;HTU21D;51062;45.120;37.660;2023-08-06T06:49:16;36.75;37.17
64652;HTU21D;51062;45.120;37.660;2023-08-06T06:51:42;36.84;37.17
64652;HTU21D;51062;45.120;37.660;2023-08-06T06:54:08;36.80;36.96
64652;HTU21D;51062;45.120;37.660;2023-08-06T06:56:34;36.64;36.95
64652;HTU21D;51062;45.120;37.660;2023-08-06T06:59:00;36.69;36.88
64652;HTU21D;51062;45.120;37.660;2023-08-06T07:01:26;36.69;36.83
64652;HTU21D;51062;45.120;37.660;2023-08-06T07:03:52;36.73;36.85
64652;HTU21D;51062;45.120;37.660;2023-08-06T07:06:18;36.87;36.79
64652;HTU21D;51062;45.120;37.660;2023-08-06T07:08:45;37.02;36.61
64652;HTU21D;51062;45.120;37.660;2023-08-06T07:11:11;37.04;36.42
64652;HTU21D;51062;45.120;37.660;2023-08-06T07:13:37;36.87;36.18
64652;HTU21D;51062;45.120;37.660;2023-08-06T07:16:03;36.74;36.37
64652;HTU21D;51062;45.120;37.660;2023-08-06T07:18:30;36.68;36.40
64652;HTU21D;51062;45.120;37.660;2023-08-06T07:20:56;36.53;36.40
64652;HTU21D;51062;45.120;37.660;2023-08-06T07:23:24;36.51;36.54
64652;HTU21D;51062;45.120;37.660;2023-08-06T07:25:51;36.49;36.39
64652;HTU21D;51062;45.120;37.660;2023-08-06T07:28:17;36.45;36.09
64652;HTU21D;51062;45.120;37.660;2023-08-06T07:30:44;36.46;36.19
64652;HTU21D;51062;45.120;37.660;2023-08-06T07:33:11;36.64;36.04
64652;HTU21D;51062;45.120;37.660;2023-08-06T07:35:37;36.74;35.87
64652;HTU21D;51062;45.120;37.660;2023-08-06T07:38:04;36.87;35.80
64652;HTU21D;51062;45.120;37.660;2023-08-06T07:40:30;36.91;35.65
64652;HTU21D;51062;45.120;37.660;2023-08-06T07:42:56;36.92;35.69
64652;HTU21D;51062;45.120;37.660;2023-08-06T07:45:22;36.98;35.69
64652;HTU21D;51062;45.120;37.660;2023-08-06T07:47:48;36.98;35.72
64652;HTU21D;51062;45.120;37.660;2023-08-06T07:50:14;37.04;35.60
64652;HTU21D;51062;45.120;37.660;2023-08-06T07:52:40;37.15;35.45
64652;HTU21D;51062;45.120;37.660;2023-08-06T07:55:06;37.20;35.36
64652;HTU21D;51062;45.120;37.660;2023-08-06T07:57:32;37.26;35.17
64652;HTU21D;51062;45.120;37.660;2023-08-06T08:00:00;37.28;35.28
64652;HTU21D;51062;45.120;37.660;2023-08-06T08:02:27;37.38;35.20
64652;HTU21D;51062;45.120;37.660;2023-08-06T08:04:53;37.46;34.79
64652;HTU21D;51062;45.120;37.660;2023-08-06T08:07:20;37.15;34.71
64652;HTU21D;51062;45.120;37.660;2023-08-06T08:09:46;36.93;34.98
64652;HTU21D;51062;45.120;37.660;2023-08-06T08:12:14;36.76;34.91
64652;HTU21D;51062;45.120;37.660;2023-08-06T08:14:40;36.51;35.22
64652;HTU21D;51062;45.120;37.660;2023-08-06T08:17:06;36.13;35.51
64652;HTU21D;51062;45.120;37.660;2023-08-06T08:19:32;35.68;36.02
64652;HTU21D;51062;45.120;37.660;2023-08-06T08:21:58;35.31;36.40
64652;HTU21D;51062;45.120;37.660;2023-08-06T08:24:25;35.10;36.66
64652;HTU21D;51062;45.120;37.660;2023-08-06T08:26:52;34.90;36.72
64652;HTU21D;51062;45.120;37.660;2023-08-06T08:29:19;34.69;36.87
64652;HTU21D;51062;45.120;37.660;2023-08-06T08:31:45;34.52;37.21
64652;HTU21D;51062;45.120;37.660;2023-08-06T08:34:13;34.46;37.27
64652;HTU21D;51062;45.120;37.660;2023-08-06T08:36:39;34.41;37.36
64652;HTU21D;51062;45.120;37.660;2023-08-06T08:39:05;34.41;37.30
64652;HTU21D;51062;45.120;37.660;2023-08-06T08:41:33;34.32;37.32
64652;HTU21D;51062;45.120;37.660;2023-08-06T08:43:59;34.24;37.40
64652;HTU21D;51062;45.120;37.660;2023-08-06T08:46:27;34.23;37.44
64652;HTU21D;51062;45.120;37.660;2023-08-06T08:48:54;34.25;37.46
64652;HTU21D;51062;45.120;37.660;2023-08-06T08:51:21;34.23;37.40
64652;HTU21D;51062;45.120;37.660;2023-08-06T08:53:49;34.25;37.32
64652;HTU21D;51062;45.120;37.660;2023-08-06T08:56:19;34.24;37.36
64652;HTU21D;51062;45.120;37.660;2023-08-06T08:58:45;34.20;37.27
64652;HTU21D;51062;45.120;37.660;2023-08-06T09:01:11;34.14;37.36
64652;HTU21D;51062;45.120;37.660;2023-08-06T09:03:37;34.11;37.43
64652;HTU21D;51062;45.120;37.660;2023-08-06T09:06:04;34.15;37.48
64652;HTU21D;51062;45.120;37.660;2023-08-06T09:08:36;34.22;37.49
64652;HTU21D;51062;45.120;37.660;2023-08-06T09:11:04;34.25;37.33
64652;HTU21D;51062;45.120;37.660;2023-08-06T09:13:31;34.26;37.45
64652;HTU21D;51062;45.120;37.660;2023-08-06T09:15:57;34.33;37.45
64652;HTU21D;51062;45.120;37.660;2023-08-06T09:18:26;34.38;37.47
64652;HTU21D;51062;45.120;37.660;2023-08-06T09:20:56;34.44;37.46
64652;HTU21D;51062;45.120;37.660;2023-08-06T09:23:28;34.49;37.32
64652;HTU21D;51062;45.120;37.660;2023-08-06T09:25:59;34.48;37.20
64652;HTU21D;51062;45.120;37.660;2023-08-06T09:28:45;34.42;37.18
64652;HTU21D;51062;45.120;37.660;2023-08-06T09:31:11;34.46;37.39
64652;HTU21D;51062;45.120;37.660;2023-08-06T09:33:38;34.49;37.33
64652;HTU21D;51062;45.120;37.660;2023-08-06T09:36:08;34.52;37.29
64652;HTU21D;51062;45.120;37.660;2023-08-06T09:38:38;34.53;37.21
64652;HTU21D;51062;45.120;37.660;2023-08-06T09:41:07;34.59;37.35
64652;HTU21D;51062;45.120;37.660;2023-08-06T09:43:41;34.66;37.21
64652;HTU21D;51062;45.120;37.660;2023-08-06T09:46:14;34.68;37.06
64652;HTU21D;51062;45.120;37.660;2023-08-06T09:48:45;34.68;37.21
64652;HTU21D;51062;45.120;37.660;2023-08-06T09:51:13;34.76;37.07
64652;HTU21D;51062;45.120;37.660;2023-08-06T09:53:40;34.76;36.95
64652;HTU21D;51062;45.120;37.660;2023-08-06T09:56:06;34.77;37.01
64652;HTU21D;51062;45.120;37.660;2023-08-06T09:58:33;34.79;37.00
64652;HTU21D;51062;45.120;37.660;2023-08-06T10:01:00;34.80;36.95
64652;HTU21D;51062;45.120;37.660;2023-08-06T10:03:28;34.83;36.98
64652;HTU21D;51062;45.120;37.660;2023-08-06T10:05:55;34.86;37.01
64652;HTU21D;51062;45.120;37.660;2023-08-06T10:08:23;34.85;37.15
64652;HTU21D;51062;45.120;37.660;2023-08-06T10:10:49;34.90;37.07
64652;HTU21D;51062;45.120;37.660;2023-08-06T10:13:16;34.92;37.08
64652;HTU21D;51062;45.120;37.660;2023-08-06T10:15:43;34.93;37.02
64652;HTU21D;51062;45.120;37.660;2023-08-06T10:18:11;34.91;37.10
64652;HTU21D;51062;45.120;37.660;2023-08-06T10:20:39;34.90;37.12
64652;HTU21D;51062;45.120;37.660;2023-08-06T10:23:06;34.90;37.16
64652;HTU21D;51062;45.120;37.660;2023-08-06T10:25:34;34.91;37.09
64652;HTU21D;51062;45.120;37.660;2023-08-06T10:28:07;34.93;37.16
64652;HTU21D;51062;45.120;37.660;2023-08-06T10:30:41;34.99;37.00
64652;HTU21D;51062;45.120;37.660;2023-08-06T10:33:07;34.99;36.97
64652;HTU21D;51062;45.120;37.660;2023-08-06T10:35:47;35.01;36.98
64652;HTU21D;51062;45.120;37.660;2023-08-06T10:38:25;35.04;36.81
64652;HTU21D;51062;45.120;37.660;2023-08-06T10:43:34;35.11;36.81
64652;HTU21D;51062;45.120;37.660;2023-08-06T10:46:02;35.15;36.67
64652;HTU21D;51062;45.120;37.660;2023-08-06T10:48:48;35.19;36.59
64652;HTU21D;51062;45.120;37.660;2023-08-06T10:51:14;35.16;36.52
64652;HTU21D;51062;45.120;37.660;2023-08-06T10:53:48;35.14;36.50
64652;HTU21D;51062;45.120;37.660;2023-08-06T10:56:18;35.12;36.56
64652;HTU21D;51062;45.120;37.660;2023-08-06T10:58:46;35.11;36.60
64652;HTU21D;51062;45.120;37.660;2023-08-06T11:01:12;35.12;36.53
64652;HTU21D;51062;45.120;37.660;2023-08-06T11:03:39;35.14;36.50
64652;HTU21D;51062;45.120;37.660;2023-08-06T11:06:09;35.23;36.48
64652;HTU21D;51062;45.120;37.660;2023-08-06T11:08:47;35.29;36.43
64652;HTU21D;51062;45.120;37.660;2023-08-06T11:11:15;35.31;36.38
64652;HTU21D;51062;45.120;37.660;2023-08-06T11:13:46;35.33;36.36
64652;HTU21D;51062;45.120;37.660;2023-08-06T11:16:13;35.36;36.32
64652;HTU21D;51062;45.120;37.660;2023-08-06T11:18:40;35.39;36.23
64652;HTU21D;51062;45.120;37.660;2023-08-06T11:21:08;35.40;36.13
64652;HTU21D;51062;45.120;37.660;2023-08-06T11:23:35;35.42;36.14
64652;HTU21D;51062;45.120;37.660;2023-08-06T11:26:02;35.44;36.04
64652;HTU21D;51062;45.120;37.660;2023-08-06T11:28:28;35.44;36.12
64652;HTU21D;51062;45.120;37.660;2023-08-06T11:30:54;35.48;36.05
64652;HTU21D;51062;45.120;37.660;2023-08-06T11:33:23;35.53;35.96
64652;HTU21D;51062;45.120;37.660;2023-08-06T11:35:52;35.57;36.02
64652;HTU21D;51062;45.120;37.660;2023-08-06T11:38:18;35.60;35.71
64652;HTU21D;51062;45.120;37.660;2023-08-06T11:40:45;35.65;35.63
64652;HTU21D;51062;45.120;37.660;2023-08-06T11:43:14;35.65;35.34
64652;HTU21D;51062;45.120;37.660;2023-08-06T11:45:40;35.66;35.39
64652;HTU21D;51062;45.120;37.660;2023-08-06T11:48:07;35.68;35.06
64652;HTU21D;51062;45.120;37.660;2023-08-06T11:50:37;35.68;35.02
64652;HTU21D;51062;45.120;37.660;2023-08-06T11:53:07;35.68;34.97
64652;HTU21D;51062;45.120;37.660;2023-08-06T11:55:33;35.69;34.77
64652;HTU21D;51062;45.120;37.660;2023-08-06T11:58:03;35.71;34.70
64652;HTU21D;51062;45.120;37.660;2023-08-06T12:00:30;35.75;34.66
64652;HTU21D;51062;45.120;37.660;2023-08-06T12:02:57;35.79;34.59
64652;HTU21D;51062;45.120;37.660;2023-08-06T12:05:28;35.81;34.44
64652;HTU21D;51062;45.120;37.660;2023-08-06T12:07:59;35.81;34.24
64652;HTU21D;51062;45.120;37.660;2023-08-06T12:10:27;35.82;34.25
64652;HTU21D;51062;45.120;37.660;2023-08-06T12:12:54;35.87;34.18
64652;HTU21D;51062;45.120;37.660;2023-08-06T12:15:20;35.89;34.15
64652;HTU21D;51062;45.120;37.660;2023-08-06T12:17:46;35.90;33.95
64652;HTU21D;51062;45.120;37.660;2023-08-06T12:20:12;35.94;33.94
64652;HTU21D;51062;45.120;37.660;2023-08-06T12:22:39;35.98;34.05
64652;HTU21D;51062;45.120;37.660;2023-08-06T12:25:09;36.01;33.92
64652;HTU21D;51062;45.120;37.660;2023-08-06T12:27:39;36.04;33.80
64652;HTU21D;51062;45.120;37.660;2023-08-06T12:30:05;36.07;33.63
64652;HTU21D;51062;45.120;37.660;2023-08-06T12:32:33;36.04;33.63
64652;HTU21D;51062;45.120;37.660;2023-08-06T12:35:00;36.06;33.67
64652;HTU21D;51062;45.120;37.660;2023-08-06T12:37:27;36.08;33.47
64652;HTU21D;51062;45.120;37.660;2023-08-06T12:39:53;36.08;33.57
64652;HTU21D;51062;45.120;37.660;2023-08-06T12:42:19;36.10;33.44
64652;HTU21D;51062;45.120;37.660;2023-08-06T12:44:46;36.10;33.36
64652;HTU21D;51062;45.120;37.660;2023-08-06T12:47:14;36.11;33.25
64652;HTU21D;51062;45.120;37.660;2023-08-06T12:49:40;36.11;33.21
64652;HTU21D;51062;45.120;37.660;2023-08-06T12:52:06;36.12;33.15
64652;HTU21D;51062;45.120;37.660;2023-08-06T12:54:33;36.15;33.02
64652;HTU21D;51062;45.120;37.660;2023-08-06T12:57:04;36.14;33.09
64652;HTU21D;51062;45.120;37.660;2023-08-06T12:59:30;36.16;33.12
64652;HTU21D;51062;45.120;37.660;2023-08-06T13:01:57;36.19;33.13
64652;HTU21D;51062;45.120;37.660;2023-08-06T13:04:23;36.19;33.07
64652;HTU21D;51062;45.120;37.660;2023-08-06T13:06:49;36.22;32.87
64652;HTU21D;51062;45.120;37.660;2023-08-06T13:09:15;36.19;32.83
64652;HTU21D;51062;45.120;37.660;2023-08-06T13:11:42;36.23;32.71
64652;HTU21D;51062;45.120;37.660;2023-08-06T13:14:12;36.23;32.72
64652;HTU21D;51062;45.120;37.660;2023-08-06T13:16:40;36.24;32.70
64652;HTU21D;51062;45.120;37.660;2023-08-06T13:19:07;36.25;32.64
64652;HTU21D;51062;45.120;37.660;2023-08-06T13:24:13;36.26;32.60
64652;HTU21D;51062;45.120;37.660;2023-08-06T13:26:39;36.30;32.54
64652;HTU21D;51062;45.120;37.660;2023-08-06T13:29:05;36.30;32.53
64652;HTU21D;51062;45.120;37.660;2023-08-06T13:31:33;36.30;32.48
64652;HTU21D;51062;45.120;37.660;2023-08-06T13:33:59;36.31;32.42
64652;HTU21D;51062;45.120;37.660;2023-08-06T13:36:29;36.30;32.38
64652;HTU21D;51062;45.120;37.660;2023-08-06T13:38:56;36.30;32.51
64652;HTU21D;51062;45.120;37.660;2023-08-06T13:41:22;36.32;32.51
64652;HTU21D;51062;45.120;37.660;2023-08-06T13:43:49;36.33;32.31
64652;HTU21D;51062;45.120;37.660;2023-08-06T13:46:15;36.33;32.25
64652;HTU21D;51062;45.120;37.660;2023-08-06T13:48:47;36.33;32.35
64652;HTU21D;51062;45.120;37.660;2023-08-06T13:51:16;36.34;32.22
64652;HTU21D;51062;45.120;37.660;2023-08-06T13:53:43;36.37;31.99
64652;HTU21D;51062;45.120;37.660;2023-08-06T13:56:10;36.38;32.02
64652;HTU21D;51062;45.120;37.660;2023-08-06T13:58:37;36.38;31.93
64652;HTU21D;51062;45.120;37.660;2023-08-06T14:01:03;36.37;31.80
64652;HTU21D;51062;45.120;37.660;2023-08-06T14:03:30;36.36;31.68
64652;HTU21D;51062;45.120;37.660;2023-08-06T14:05:56;36.36;31.67
64652;HTU21D;51062;45.120;37.660;2023-08-06T14:08:25;36.34;31.59
64652;HTU21D;51062;45.120;37.660;2023-08-06T14:10:52;36.33;31.58
64652;HTU21D;51062;45.120;37.660;2023-08-06T14:13:18;36.31;31.69
64652;HTU21D;51062;45.120;37.660;2023-08-06T14:15:44;36.30;31.63
64652;HTU21D;51062;45.120;37.660;2023-08-06T14:18:13;36.27;31.62
64652;HTU21D;51062;45.120;37.660;2023-08-06T14:20:41;36.26;31.81
64652;HTU21D;51062;45.120;37.660;2023-08-06T14:23:07;36.24;31.86
64652;HTU21D;51062;45.120;37.660;2023-08-06T14:25:33;36.22;31.69
64652;HTU21D;51062;45.120;37.660;2023-08-06T14:27:59;36.21;31.72
64652;HTU21D;51062;45.120;37.660;2023-08-06T14:30:25;36.15;31.80
64652;HTU21D;51062;45.120;37.660;2023-08-06T14:32:52;36.13;31.80
64652;HTU21D;51062;45.120;37.660;2023-08-06T14:35:18;36.12;31.85
64652;HTU21D;51062;45.120;37.660;2023-08-06T14:37:44;36.09;31.78
64652;HTU21D;51062;45.120;37.660;2023-08-06T14:40:11;36.04;31.67
64652;HTU21D;51062;45.120;37.660;2023-08-06T14:42:37;36.02;31.72
64652;HTU21D;51062;45.120;37.660;2023-08-06T14:45:04;36.00;31.54
64652;HTU21D;51062;45.120;37.660;2023-08-06T14:47:30;35.97;31.47
64652;HTU21D;51062;45.120;37.660;2023-08-06T14:49:56;35.96;31.56
64652;HTU21D;51062;45.120;37.660;2023-08-06T14:52:22;35.92;31.62
64652;HTU21D;51062;45.120;37.660;2023-08-06T14:54:48;35.89;31.65
64652;HTU21D;51062;45.120;37.660;2023-08-06T14:57:18;35.85;31.73
64652;HTU21D;51062;45.120;37.660;2023-08-06T14:59:44;35.83;31.77
64652;HTU21D;51062;45.120;37.660;2023-08-06T15:02:10;35.79;31.75
64652;HTU21D;51062;45.120;37.660;2023-08-06T15:04:36;35.75;31.84
64652;HTU21D;51062;45.120;37.660;2023-08-06T15:07:02;35.72;31.90
64652;HTU21D;51062;45.120;37.660;2023-08-06T15:09:29;35.67;31.92
64652;HTU21D;51062;45.120;37.660;2023-08-06T15:11:55;35.64;32.01